sensor_id;sensor_type;location;lat;lon;timestamp;pressure;altitude;pressure_sealevel;temperature;humidity
49545;BME280;74870;42.636;23.302;2024-02-14T00:01:00;92842.75;;;5.83;nan
49545;BME280;74870;42.636;23.302;2024-02-14T00:03:25;92763.44;;;5.46;nan
49545;BME280;74870;42.636;23.302;2024-02-14T00:05:50;92839.59;;;5.86;nan
49545;BME280;74870;42.636;23.302;2024-02-14T00:08:17;92782.38;;;5.61;nan
49545;BME280;74870;42.636;23.302;2024-02-14T00:10:43;92828.88;;;5.93;nan
49545;BME280;74870;42.636;23.302;2024-02-14T00:13:10;92852.31;;;5.93;nan
49545;BME280;74870;42.636;23.302;2024-02-14T00:15:36;92792.56;;;5.53;nan
49545;BME280;74870;42.636;23.302;2024-02-14T00:18:02;92816.91;;;5.82;nan
49545;BME280;74870;42.636;23.302;2024-02-14T00:20:28;92859.63;;;5.91;nan
49545;BME280;74870;42.636;23.302;2024-02-14T00:22:53;92744.78;;;5.29;nan
49545;BME280;74870;42.636;23.302;2024-02-14T00:25:19;92792.75;;;5.66;nan
49545;BME280;74870;42.636;23.302;2024-02-14T00:27:44;92847.91;;;5.88;nan
49545;BME280;74870;42.636;23.302;2024-02-14T00:30:10;92880.38;;;6.06;nan
49545;BME280;74870;42.636;23.302;2024-02-14T00:32:36;92786.56;;;5.57;nan
49545;BME280;74870;42.636;23.302;2024-02-14T00:35:01;92844.47;;;5.98;nan
49545;BME280;74870;42.636;23.302;2024-02-14T00:37:27;92793.03;;;5.65;nan
49545;BME280;74870;42.636;23.302;2024-02-14T00:39:54;92822.63;;;5.89;nan
49545;BME280;74870;42.636;23.302;2024-02-14T00:42:21;92790.66;;;5.68;nan
49545;BME280;74870;42.636;23.302;2024-02-14T00:44:47;92796.66;;;5.69;nan
49545;BME280;74870;42.636;23.302;2024-02-14T00:47:12;92840.13;;;5.78;nan
49545;BME280;74870;42.636;23.302;2024-02-14T00:49:38;92834.91;;;5.83;nan
49545;BME280;74870;42.636;23.302;2024-02-14T00:52:04;92799.84;;;5.56;nan
49545;BME280;74870;42.636;23.302;2024-02-14T00:54:30;92821.66;;;5.70;nan
49545;BME280;74870;42.636;23.302;2024-02-14T00:56:55;92809.69;;;5.64;nan
49545;BME280;74870;42.636;23.302;2024-02-14T00:59:21;92869.22;;;6.01;nan
49545;BME280;74870;42.636;23.302;2024-02-14T01:01:46;92827.38;;;5.72;nan
49545;BME280;74870;42.636;23.302;2024-02-14T01:04:11;92871.75;;;6.16;nan
49545;BME280;74870;42.636;23.302;2024-02-14T01:06:37;92819.81;;;5.85;nan
49545;BME280;74870;42.636;23.302;2024-02-14T01:09:02;92857.44;;;6.08;nan
49545;BME280;74870;42.636;23.302;2024-02-14T01:11:28;92862.41;;;6.10;nan
49545;BME280;74870;42.636;23.302;2024-02-14T01:13:54;92886.16;;;6.03;nan
49545;BME280;74870;42.636;23.302;2024-02-14T01:16:19;92791.25;;;5.55;nan
49545;BME280;74870;42.636;23.302;2024-02-14T01:18:47;92778.50;;;5.54;nan
49545;BME280;74870;42.636;23.302;2024-02-14T01:21:12;92849.72;;;5.93;nan
49545;BME280;74870;42.636;23.302;2024-02-14T01:23:38;92810.97;;;5.71;nan
49545;BME280;74870;42.636;23.302;2024-02-14T01:26:03;92798.00;;;5.56;nan
49545;BME280;74870;42.636;23.302;2024-02-14T01:28:29;92829.94;;;5.82;nan
49545;BME280;74870;42.636;23.302;2024-02-14T01:30:54;92800.81;;;5.70;nan
49545;BME280;74870;42.636;23.302;2024-02-14T01:33:23;92810.19;;;5.66;nan
49545;BME280;74870;42.636;23.302;2024-02-14T01:35:48;92780.34;;;5.53;nan
49545;BME280;74870;42.636;23.302;2024-02-14T01:38:14;92835.66;;;5.89;nan
49545;BME280;74870;42.636;23.302;2024-02-14T01:40:42;92854.16;;;5.92;nan
49545;BME280;74870;42.636;23.302;2024-02-14T01:43:10;92811.75;;;5.72;nan
49545;BME280;74870;42.636;23.302;2024-02-14T01:45:36;92750.47;;;5.31;nan
49545;BME280;74870;42.636;23.302;2024-02-14T01:48:02;92798.75;;;5.62;nan
49545;BME280;74870;42.636;23.302;2024-02-14T01:50:28;92778.28;;;5.40;nan
49545;BME280;74870;42.636;23.302;2024-02-14T01:52:56;92867.72;;;5.84;nan
49545;BME280;74870;42.636;23.302;2024-02-14T01:55:23;92818.28;;;5.64;nan
49545;BME280;74870;42.636;23.302;2024-02-14T01:57:48;92771.78;;;5.38;nan
49545;BME280;74870;42.636;23.302;2024-02-14T02:00:14;92844.81;;;5.76;nan
49545;BME280;74870;42.636;23.302;2024-02-14T02:02:43;92786.09;;;5.40;nan
49545;BME280;74870;42.636;23.302;2024-02-14T02:05:09;92783.19;;;5.52;nan
49545;BME280;74870;42.636;23.302;2024-02-14T02:07:35;92860.69;;;5.80;nan
49545;BME280;74870;42.636;23.302;2024-02-14T02:10:05;92842.75;;;5.68;nan
49545;BME280;74870;42.636;23.302;2024-02-14T02:12:30;92789.50;;;5.41;nan
49545;BME280;74870;42.636;23.302;2024-02-14T02:14:56;92798.56;;;5.48;nan
49545;BME280;74870;42.636;23.302;2024-02-14T02:17:22;92856.28;;;5.75;nan
49545;BME280;74870;42.636;23.302;2024-02-14T02:19:48;92815.97;;;5.58;nan
49545;BME280;74870;42.636;23.302;2024-02-14T02:22:13;92821.47;;;5.51;nan
49545;BME280;74870;42.636;23.302;2024-02-14T02:24:39;92829.81;;;5.53;nan
49545;BME280;74870;42.636;23.302;2024-02-14T02:27:04;92875.56;;;5.74;nan
49545;BME280;74870;42.636;23.302;2024-02-14T02:29:30;92811.38;;;5.35;nan
49545;BME280;74870;42.636;23.302;2024-02-14T02:31:57;92861.03;;;5.63;nan
49545;BME280;74870;42.636;23.302;2024-02-14T02:34:23;92817.34;;;5.40;nan
49545;BME280;74870;42.636;23.302;2024-02-14T02:36:48;92812.72;;;5.27;nan
49545;BME280;74870;42.636;23.302;2024-02-14T02:39:16;92795.00;;;5.24;nan
49545;BME280;74870;42.636;23.302;2024-02-14T02:41:41;92820.50;;;5.37;nan
49545;BME280;74870;42.636;23.302;2024-02-14T02:44:07;92853.47;;;5.62;nan
49545;BME280;74870;42.636;23.302;2024-02-14T02:46:32;92855.53;;;5.65;nan
49545;BME280;74870;42.636;23.302;2024-02-14T02:48:58;92870.84;;;5.76;nan
49545;BME280;74870;42.636;23.302;2024-02-14T02:51:24;92827.47;;;5.47;nan
49545;BME280;74870;42.636;23.302;2024-02-14T02:53:49;92880.25;;;5.77;nan
49545;BME280;74870;42.636;23.302;2024-02-14T02:56:17;92846.97;;;5.54;nan
49545;BME280;74870;42.636;23.302;2024-02-14T02:58:42;92895.59;;;5.79;nan
49545;BME280;74870;42.636;23.302;2024-02-14T03:01:09;92888.81;;;5.78;nan
49545;BME280;74870;42.636;23.302;2024-02-14T03:03:37;92827.25;;;5.38;nan
49545;BME280;74870;42.636;23.302;2024-02-14T03:06:04;92795.03;;;5.14;nan
49545;BME280;74870;42.636;23.302;2024-02-14T03:08:33;92872.97;;;5.64;nan
49545;BME280;74870;42.636;23.302;2024-02-14T03:11:04;92896.13;;;5.81;nan
49545;BME280;74870;42.636;23.302;2024-02-14T03:13:31;92864.19;;;5.50;nan
49545;BME280;74870;42.636;23.302;2024-02-14T03:15:56;92910.72;;;5.72;nan
49545;BME280;74870;42.636;23.302;2024-02-14T03:18:24;92915.38;;;5.80;nan
49545;BME280;74870;42.636;23.302;2024-02-14T03:20:49;92902.91;;;5.72;nan
49545;BME280;74870;42.636;23.302;2024-02-14T03:23:15;92870.66;;;5.58;nan
49545;BME280;74870;42.636;23.302;2024-02-14T03:25:41;92901.91;;;5.63;nan
49545;BME280;74870;42.636;23.302;2024-02-14T03:28:07;92856.38;;;5.50;nan
49545;BME280;74870;42.636;23.302;2024-02-14T03:30:36;92901.31;;;5.76;nan
49545;BME280;74870;42.636;23.302;2024-02-14T03:33:05;92880.03;;;5.59;nan
49545;BME280;74870;42.636;23.302;2024-02-14T03:35:33;92942.75;;;5.77;nan
49545;BME280;74870;42.636;23.302;2024-02-14T03:38:01;92892.00;;;5.60;nan
49545;BME280;74870;42.636;23.302;2024-02-14T03:40:26;92921.97;;;5.67;nan
49545;BME280;74870;42.636;23.302;2024-02-14T03:42:52;92921.44;;;5.60;nan
49545;BME280;74870;42.636;23.302;2024-02-14T03:45:20;92853.03;;;5.30;nan
49545;BME280;74870;42.636;23.302;2024-02-14T03:47:46;92885.28;;;5.49;nan
49545;BME280;74870;42.636;23.302;2024-02-14T03:50:11;92946.13;;;5.78;nan
49545;BME280;74870;42.636;23.302;2024-02-14T03:52:36;92874.06;;;5.48;nan
49545;BME280;74870;42.636;23.302;2024-02-14T03:55:02;92919.66;;;5.51;nan
49545;BME280;74870;42.636;23.302;2024-02-14T03:57:28;92891.28;;;5.44;nan
49545;BME280;74870;42.636;23.302;2024-02-14T03:59:55;92943.53;;;5.83;nan
49545;BME280;74870;42.636;23.302;2024-02-14T04:02:21;92950.59;;;5.77;nan
49545;BME280;74870;42.636;23.302;2024-02-14T04:04:48;92938.88;;;5.60;nan
49545;BME280;74870;42.636;23.302;2024-02-14T04:07:14;92940.44;;;5.71;nan
49545;BME280;74870;42.636;23.302;2024-02-14T04:09:39;92934.97;;;5.62;nan
49545;BME280;74870;42.636;23.302;2024-02-14T04:12:05;92890.00;;;5.32;nan
49545;BME280;74870;42.636;23.302;2024-02-14T04:14:31;92939.41;;;5.52;nan
49545;BME280;74870;42.636;23.302;2024-02-14T04:16:56;92953.44;;;5.66;nan
49545;BME280;74870;42.636;23.302;2024-02-14T04:19:22;92938.34;;;5.68;nan
49545;BME280;74870;42.636;23.302;2024-02-14T04:21:48;92946.19;;;5.58;nan
49545;BME280;74870;42.636;23.302;2024-02-14T04:24:13;92955.81;;;5.52;nan
49545;BME280;74870;42.636;23.302;2024-02-14T04:26:39;92907.72;;;5.09;nan
49545;BME280;74870;42.636;23.302;2024-02-14T04:29:04;92938.41;;;5.33;nan
49545;BME280;74870;42.636;23.302;2024-02-14T04:31:30;92980.56;;;5.60;nan
49545;BME280;74870;42.636;23.302;2024-02-14T04:33:58;92957.91;;;5.50;nan
49545;BME280;74870;42.636;23.302;2024-02-14T04:36:24;92911.34;;;5.24;nan
49545;BME280;74870;42.636;23.302;2024-02-14T04:38:50;92938.16;;;5.39;nan
49545;BME280;74870;42.636;23.302;2024-02-14T04:41:17;92905.38;;;5.13;nan
49545;BME280;74870;42.636;23.302;2024-02-14T04:43:42;92853.91;;;4.80;nan
49545;BME280;74870;42.636;23.302;2024-02-14T04:46:08;92968.31;;;5.60;nan
49545;BME280;74870;42.636;23.302;2024-02-14T04:48:37;92970.41;;;5.48;nan
49545;BME280;74870;42.636;23.302;2024-02-14T04:51:03;92963.41;;;5.39;nan
49545;BME280;74870;42.636;23.302;2024-02-14T04:53:32;92909.28;;;5.16;nan
49545;BME280;74870;42.636;23.302;2024-02-14T04:55:57;92938.16;;;5.39;nan
49545;BME280;74870;42.636;23.302;2024-02-14T04:58:23;92932.19;;;5.19;nan
49545;BME280;74870;42.636;23.302;2024-02-14T05:00:49;92910.06;;;5.06;nan
49545;BME280;74870;42.636;23.302;2024-02-14T05:03:15;92983.19;;;5.40;nan
49545;BME280;74870;42.636;23.302;2024-02-14T05:05:41;92991.25;;;5.48;nan
49545;BME280;74870;42.636;23.302;2024-02-14T05:08:07;92957.16;;;5.35;nan
49545;BME280;74870;42.636;23.302;2024-02-14T05:10:32;92969.38;;;5.34;nan
49545;BME280;74870;42.636;23.302;2024-02-14T05:12:58;92935.84;;;5.02;nan
49545;BME280;74870;42.636;23.302;2024-02-14T05:15:23;93000.91;;;5.43;nan
49545;BME280;74870;42.636;23.302;2024-02-14T05:17:49;93008.19;;;5.41;nan
49545;BME280;74870;42.636;23.302;2024-02-14T05:20:15;93001.66;;;5.18;nan
49545;BME280;74870;42.636;23.302;2024-02-14T05:22:41;92991.50;;;5.42;nan
49545;BME280;74870;42.636;23.302;2024-02-14T05:25:07;93012.09;;;5.53;nan
49545;BME280;74870;42.636;23.302;2024-02-14T05:27:36;93043.34;;;5.63;nan
49545;BME280;74870;42.636;23.302;2024-02-14T05:30:02;93003.47;;;5.18;nan
49545;BME280;74870;42.636;23.302;2024-02-14T05:32:34;93011.56;;;5.26;nan
49545;BME280;74870;42.636;23.302;2024-02-14T05:34:59;93062.59;;;5.47;nan
49545;BME280;74870;42.636;23.302;2024-02-14T05:37:25;93058.94;;;5.48;nan
49545;BME280;74870;42.636;23.302;2024-02-14T05:39:54;93057.94;;;5.49;nan
49545;BME280;74870;42.636;23.302;2024-02-14T05:42:20;92992.56;;;5.10;nan
49545;BME280;74870;42.636;23.302;2024-02-14T05:44:46;93026.13;;;5.22;nan
49545;BME280;74870;42.636;23.302;2024-02-14T05:47:12;92943.63;;;4.77;nan
49545;BME280;74870;42.636;23.302;2024-02-14T05:49:40;93048.53;;;5.38;nan
49545;BME280;74870;42.636;23.302;2024-02-14T05:52:06;93054.50;;;5.44;nan
49545;BME280;74870;42.636;23.302;2024-02-14T05:54:32;93071.69;;;5.50;nan
49545;BME280;74870;42.636;23.302;2024-02-14T05:56:58;93008.94;;;5.11;nan
49545;BME280;74870;42.636;23.302;2024-02-14T05:59:23;93060.00;;;5.42;nan
49545;BME280;74870;42.636;23.302;2024-02-14T06:01:49;92992.78;;;4.99;nan
49545;BME280;74870;42.636;23.302;2024-02-14T06:04:14;93073.00;;;5.32;nan
49545;BME280;74870;42.636;23.302;2024-02-14T06:06:40;93023.75;;;4.90;nan
49545;BME280;74870;42.636;23.302;2024-02-14T06:09:05;93040.47;;;5.15;nan
49545;BME280;74870;42.636;23.302;2024-02-14T06:11:35;93021.41;;;4.99;nan
49545;BME280;74870;42.636;23.302;2024-02-14T06:14:01;93017.00;;;4.94;nan
49545;BME280;74870;42.636;23.302;2024-02-14T06:16:26;93057.09;;;5.13;nan
49545;BME280;74870;42.636;23.302;2024-02-14T06:18:52;93137.06;;;5.48;nan
49545;BME280;74870;42.636;23.302;2024-02-14T06:21:17;93004.75;;;4.80;nan
49545;BME280;74870;42.636;23.302;2024-02-14T06:23:44;93100.09;;;5.36;nan
49545;BME280;74870;42.636;23.302;2024-02-14T06:26:12;93105.56;;;5.45;nan
49545;BME280;74870;42.636;23.302;2024-02-14T06:28:38;93050.06;;;5.09;nan
49545;BME280;74870;42.636;23.302;2024-02-14T06:31:04;93094.34;;;5.29;nan
49545;BME280;74870;42.636;23.302;2024-02-14T06:36:51;93115.47;;;5.43;nan
49545;BME280;74870;42.636;23.302;2024-02-14T06:39:17;93058.94;;;5.18;nan
49545;BME280;74870;42.636;23.302;2024-02-14T06:41:42;93057.13;;;5.19;nan
49545;BME280;74870;42.636;23.302;2024-02-14T06:44:10;93070.13;;;5.08;nan
49545;BME280;74870;42.636;23.302;2024-02-14T06:46:35;93061.00;;;5.06;nan
49545;BME280;74870;42.636;23.302;2024-02-14T06:49:03;93047.44;;;5.09;nan
49545;BME280;74870;42.636;23.302;2024-02-14T06:51:28;93073.78;;;5.28;nan
49545;BME280;74870;42.636;23.302;2024-02-14T06:53:55;93061.28;;;5.30;nan
49545;BME280;74870;42.636;23.302;2024-02-14T06:56:21;93105.31;;;5.56;nan
49545;BME280;74870;42.636;23.302;2024-02-14T06:58:46;93080.53;;;5.19;nan
49545;BME280;74870;42.636;23.302;2024-02-14T07:01:17;93114.69;;;5.37;nan
49545;BME280;74870;42.636;23.302;2024-02-14T07:03:47;93156.38;;;5.57;nan
49545;BME280;74870;42.636;23.302;2024-02-14T07:06:12;93103.44;;;5.32;nan
49545;BME280;74870;42.636;23.302;2024-02-14T07:08:40;93093.84;;;5.27;nan
49545;BME280;74870;42.636;23.302;2024-02-14T07:11:06;93058.88;;;4.93;nan
49545;BME280;74870;42.636;23.302;2024-02-14T07:13:31;93141.78;;;5.56;nan
49545;BME280;74870;42.636;23.302;2024-02-14T07:15:57;93148.03;;;5.55;nan
49545;BME280;74870;42.636;23.302;2024-02-14T07:18:22;93156.13;;;5.69;nan
49545;BME280;74870;42.636;23.302;2024-02-14T07:20:47;93097.47;;;5.31;nan
49545;BME280;74870;42.636;23.302;2024-02-14T07:23:13;93139.41;;;5.50;nan
49545;BME280;74870;42.636;23.302;2024-02-14T07:25:39;93118.03;;;5.28;nan
49545;BME280;74870;42.636;23.302;2024-02-14T07:28:04;93119.63;;;5.39;nan
49545;BME280;74870;42.636;23.302;2024-02-14T07:30:30;93133.13;;;5.36;nan
49545;BME280;74870;42.636;23.302;2024-02-14T07:32:55;93075.75;;;4.85;nan
49545;BME280;74870;42.636;23.302;2024-02-14T07:35:21;93156.81;;;5.24;nan
49545;BME280;74870;42.636;23.302;2024-02-14T07:37:47;93091.91;;;4.87;nan
49545;BME280;74870;42.636;23.302;2024-02-14T07:40:14;93117.69;;;4.99;nan
49545;BME280;74870;42.636;23.302;2024-02-14T07:42:39;93178.94;;;5.32;nan
49545;BME280;74870;42.636;23.302;2024-02-14T07:45:05;93154.75;;;5.31;nan
49545;BME280;74870;42.636;23.302;2024-02-14T07:47:30;93165.97;;;5.37;nan
49545;BME280;74870;42.636;23.302;2024-02-14T07:49:56;93114.56;;;4.97;nan
49545;BME280;74870;42.636;23.302;2024-02-14T07:52:22;93179.75;;;5.42;nan
49545;BME280;74870;42.636;23.302;2024-02-14T07:54:54;93186.53;;;5.48;nan
49545;BME280;74870;42.636;23.302;2024-02-14T07:57:22;93180.53;;;5.33;nan
49545;BME280;74870;42.636;23.302;2024-02-14T07:59:47;93202.41;;;5.37;nan
49545;BME280;74870;42.636;23.302;2024-02-14T08:02:13;93174.50;;;5.17;nan
49545;BME280;74870;42.636;23.302;2024-02-14T08:04:39;93127.31;;;4.93;nan
49545;BME280;74870;42.636;23.302;2024-02-14T08:07:04;93138.78;;;5.07;nan
49545;BME280;74870;42.636;23.302;2024-02-14T08:09:30;93146.59;;;5.07;nan
49545;BME280;74870;42.636;23.302;2024-02-14T08:11:55;93188.03;;;5.24;nan
49545;BME280;74870;42.636;23.302;2024-02-14T08:14:20;93118.41;;;4.74;nan
49545;BME280;74870;42.636;23.302;2024-02-14T08:16:46;93196.63;;;5.25;nan
49545;BME280;74870;42.636;23.302;2024-02-14T08:19:11;93214.59;;;5.21;nan
49545;BME280;74870;42.636;23.302;2024-02-14T08:21:37;93160.59;;;4.91;nan
49545;BME280;74870;42.636;23.302;2024-02-14T08:24:02;93095.94;;;4.53;nan
49545;BME280;74870;42.636;23.302;2024-02-14T08:26:28;93199.22;;;5.15;nan
49545;BME280;74870;42.636;23.302;2024-02-14T08:28:53;93148.81;;;4.79;nan
49545;BME280;74870;42.636;23.302;2024-02-14T08:31:19;93219.41;;;4.97;nan
49545;BME280;74870;42.636;23.302;2024-02-14T08:33:45;93182.91;;;4.77;nan
49545;BME280;74870;42.636;23.302;2024-02-14T08:36:10;93148.34;;;4.82;nan
49545;BME280;74870;42.636;23.302;2024-02-14T08:38:36;93139.97;;;4.70;nan
49545;BME280;74870;42.636;23.302;2024-02-14T08:41:02;93187.13;;;4.88;nan
49545;BME280;74870;42.636;23.302;2024-02-14T08:43:28;93244.81;;;5.27;nan
49545;BME280;74870;42.636;23.302;2024-02-14T08:45:57;93178.31;;;4.94;nan
49545;BME280;74870;42.636;23.302;2024-02-14T08:48:23;93140.94;;;4.54;nan
49545;BME280;74870;42.636;23.302;2024-02-14T08:50:49;93246.09;;;5.25;nan
49545;BME280;74870;42.636;23.302;2024-02-14T08:53:14;93151.13;;;4.65;nan
49545;BME280;74870;42.636;23.302;2024-02-14T08:55:41;93171.47;;;4.83;nan
49545;BME280;74870;42.636;23.302;2024-02-14T08:58:06;93210.06;;;5.01;nan
49545;BME280;74870;42.636;23.302;2024-02-14T09:00:35;93226.97;;;4.99;nan
49545;BME280;74870;42.636;23.302;2024-02-14T09:03:01;93177.78;;;4.92;nan
49545;BME280;74870;42.636;23.302;2024-02-14T09:05:28;93252.41;;;5.39;nan
49545;BME280;74870;42.636;23.302;2024-02-14T09:07:53;93238.56;;;5.23;nan
49545;BME280;74870;42.636;23.302;2024-02-14T09:10:19;93203.06;;;5.07;nan
49545;BME280;74870;42.636;23.302;2024-02-14T09:12:45;93213.78;;;5.16;nan
49545;BME280;74870;42.636;23.302;2024-02-14T09:15:10;93239.56;;;5.22;nan
49545;BME280;74870;42.636;23.302;2024-02-14T09:17:38;93219.50;;;5.13;nan
49545;BME280;74870;42.636;23.302;2024-02-14T09:20:06;93223.19;;;5.32;nan
49545;BME280;74870;42.636;23.302;2024-02-14T09:22:38;93192.41;;;5.13;nan
49545;BME280;74870;42.636;23.302;2024-02-14T09:25:04;93253.19;;;5.44;nan
49545;BME280;74870;42.636;23.302;2024-02-14T09:27:30;93254.50;;;5.52;nan
49545;BME280;74870;42.636;23.302;2024-02-14T09:29:56;93184.31;;;5.00;nan
49545;BME280;74870;42.636;23.302;2024-02-14T09:32:21;93238.28;;;5.30;nan
49545;BME280;74870;42.636;23.302;2024-02-14T09:34:47;93256.97;;;5.11;nan
49545;BME280;74870;42.636;23.302;2024-02-14T09:37:12;93244.47;;;5.13;nan
49545;BME280;74870;42.636;23.302;2024-02-14T09:39:38;93256.78;;;5.23;nan
49545;BME280;74870;42.636;23.302;2024-02-14T09:42:09;93214.22;;;4.92;nan
49545;BME280;74870;42.636;23.302;2024-02-14T09:44:37;93225.91;;;4.95;nan
49545;BME280;74870;42.636;23.302;2024-02-14T09:47:05;93232.75;;;5.11;nan
49545;BME280;74870;42.636;23.302;2024-02-14T09:49:31;93256.03;;;5.33;nan
49545;BME280;74870;42.636;23.302;2024-02-14T09:51:58;93144.38;;;4.64;nan
49545;BME280;74870;42.636;23.302;2024-02-14T09:54:26;93229.69;;;5.19;nan
49545;BME280;74870;42.636;23.302;2024-02-14T09:56:52;93272.94;;;5.30;nan
49545;BME280;74870;42.636;23.302;2024-02-14T09:59:39;93195.16;;;4.82;nan
49545;BME280;74870;42.636;23.302;2024-02-14T10:02:04;93252.31;;;5.24;nan
49545;BME280;74870;42.636;23.302;2024-02-14T10:04:30;93187.38;;;4.87;nan
49545;BME280;74870;42.636;23.302;2024-02-14T10:06:56;93219.19;;;5.04;nan
49545;BME280;74870;42.636;23.302;2024-02-14T10:09:22;93142.78;;;4.63;nan
49545;BME280;74870;42.636;23.302;2024-02-14T10:11:48;93230.44;;;5.20;nan
49545;BME280;74870;42.636;23.302;2024-02-14T10:14:14;93176.53;;;5.10;nan
49545;BME280;74870;42.636;23.302;2024-02-14T10:16:40;93229.00;;;5.49;nan
49545;BME280;74870;42.636;23.302;2024-02-14T10:19:17;93244.88;;;5.47;nan
49545;BME280;74870;42.636;23.302;2024-02-14T10:21:43;93242.03;;;5.54;nan
49545;BME280;74870;42.636;23.302;2024-02-14T10:24:08;93190.13;;;5.22;nan
49545;BME280;74870;42.636;23.302;2024-02-14T10:26:37;93252.56;;;5.94;nan
49545;BME280;74870;42.636;23.302;2024-02-14T10:29:03;93198.81;;;5.63;nan
49545;BME280;74870;42.636;23.302;2024-02-14T10:31:28;93236.34;;;5.67;nan
49545;BME280;74870;42.636;23.302;2024-02-14T10:33:55;93233.50;;;5.78;nan
49545;BME280;74870;42.636;23.302;2024-02-14T10:36:21;93197.50;;;5.45;nan
49545;BME280;74870;42.636;23.302;2024-02-14T10:38:47;93238.22;;;5.86;nan
49545;BME280;74870;42.636;23.302;2024-02-14T10:41:16;93255.94;;;5.84;nan
49545;BME280;74870;42.636;23.302;2024-02-14T10:43:42;93239.22;;;5.65;nan
49545;BME280;74870;42.636;23.302;2024-02-14T10:46:16;93183.41;;;5.46;nan
49545;BME280;74870;42.636;23.302;2024-02-14T10:48:44;93227.97;;;5.55;nan
49545;BME280;74870;42.636;23.302;2024-02-14T10:51:10;93222.25;;;5.68;nan
49545;BME280;74870;42.636;23.302;2024-02-14T10:53:39;93214.72;;;5.71;nan
49545;BME280;74870;42.636;23.302;2024-02-14T10:56:08;93232.44;;;5.74;nan
49545;BME280;74870;42.636;23.302;2024-02-14T10:58:34;93223.06;;;5.63;nan
49545;BME280;74870;42.636;23.302;2024-02-14T11:01:00;93200.63;;;5.47;nan
49545;BME280;74870;42.636;23.302;2024-02-14T11:03:27;93259.53;;;5.73;nan
49545;BME280;74870;42.636;23.302;2024-02-14T11:05:54;93216.22;;;5.37;nan
49545;BME280;74870;42.636;23.302;2024-02-14T11:08:28;93201.59;;;5.21;nan
49545;BME280;74870;42.636;23.302;2024-02-14T11:10:59;93234.09;;;5.24;nan
49545;BME280;74870;42.636;23.302;2024-02-14T11:13:30;93215.38;;;5.32;nan
49545;BME280;74870;42.636;23.302;2024-02-14T11:15:59;93203.88;;;5.18;nan
49545;BME280;74870;42.636;23.302;2024-02-14T11:18:26;93209.13;;;5.28;nan
49545;BME280;74870;42.636;23.302;2024-02-14T11:20:52;93255.81;;;5.49;nan
49545;BME280;74870;42.636;23.302;2024-02-14T11:23:22;93241.00;;;5.55;nan
49545;BME280;74870;42.636;23.302;2024-02-14T11:25:47;93182.53;;;5.10;nan
49545;BME280;74870;42.636;23.302;2024-02-14T11:28:14;93193.66;;;5.01;nan
49545;BME280;74870;42.636;23.302;2024-02-14T11:30:41;93253.72;;;5.41;nan
49545;BME280;74870;42.636;23.302;2024-02-14T11:33:21;93249.31;;;5.47;nan
49545;BME280;74870;42.636;23.302;2024-02-14T11:35:49;93231.00;;;5.27;nan
49545;BME280;74870;42.636;23.302;2024-02-14T11:38:17;93257.88;;;5.42;nan
49545;BME280;74870;42.636;23.302;2024-02-14T11:40:43;93233.34;;;5.23;nan
49545;BME280;74870;42.636;23.302;2024-02-14T11:43:17;93236.78;;;5.44;nan
49545;BME280;74870;42.636;23.302;2024-02-14T11:45:44;93250.09;;;5.47;nan
49545;BME280;74870;42.636;23.302;2024-02-14T11:48:14;93242.25;;;5.42;nan
49545;BME280;74870;42.636;23.302;2024-02-14T11:50:40;93226.38;;;5.44;nan
49545;BME280;74870;42.636;23.302;2024-02-14T11:53:07;93248.81;;;5.60;nan
49545;BME280;74870;42.636;23.302;2024-02-14T11:55:37;93196.41;;;5.31;nan
49545;BME280;74870;42.636;23.302;2024-02-14T11:58:07;93244.97;;;5.77;nan
49545;BME280;74870;42.636;23.302;2024-02-14T12:00:33;93272.56;;;5.73;nan
49545;BME280;74870;42.636;23.302;2024-02-14T12:03:01;93252.78;;;5.77;nan
49545;BME280;74870;42.636;23.302;2024-02-14T12:05:27;93199.56;;;5.43;nan
49545;BME280;74870;42.636;23.302;2024-02-14T12:07:52;93237.88;;;5.53;nan
49545;BME280;74870;42.636;23.302;2024-02-14T12:10:19;93245.72;;;5.68;nan
49545;BME280;74870;42.636;23.302;2024-02-14T12:12:47;93229.00;;;5.54;nan
49545;BME280;74870;42.636;23.302;2024-02-14T12:15:13;93241.56;;;5.67;nan
49545;BME280;74870;42.636;23.302;2024-02-14T12:17:41;93215.22;;;5.53;nan
49545;BME280;74870;42.636;23.302;2024-02-14T12:20:11;93177.94;;;5.43;nan
49545;BME280;74870;42.636;23.302;2024-02-14T12:22:39;93216.03;;;5.69;nan
49545;BME280;74870;42.636;23.302;2024-02-14T12:25:07;93190.19;;;5.47;nan
49545;BME280;74870;42.636;23.302;2024-02-14T12:27:33;93236.06;;;5.68;nan
49545;BME280;74870;42.636;23.302;2024-02-14T12:30:03;93204.28;;;5.61;nan
49545;BME280;74870;42.636;23.302;2024-02-14T12:32:29;93166.47;;;5.44;nan
49545;BME280;74870;42.636;23.302;2024-02-14T12:34:58;93158.69;;;5.49;nan
49545;BME280;74870;42.636;23.302;2024-02-14T12:37:25;93176.38;;;5.47;nan
49545;BME280;74870;42.636;23.302;2024-02-14T12:39:50;93235.34;;;5.88;nan
49545;BME280;74870;42.636;23.302;2024-02-14T12:42:16;93197.00;;;5.78;nan
49545;BME280;74870;42.636;23.302;2024-02-14T12:44:44;93246.31;;;5.95;nan
49545;BME280;74870;42.636;23.302;2024-02-14T12:47:09;93196.47;;;5.66;nan
49545;BME280;74870;42.636;23.302;2024-02-14T12:49:35;93245.81;;;6.08;nan
49545;BME280;74870;42.636;23.302;2024-02-14T12:52:01;93249.75;;;6.16;nan
49545;BME280;74870;42.636;23.302;2024-02-14T12:54:27;93248.44;;;6.13;nan
49545;BME280;74870;42.636;23.302;2024-02-14T12:56:53;93215.31;;;5.83;nan
49545;BME280;74870;42.636;23.302;2024-02-14T12:59:19;93238.25;;;5.91;nan
49545;BME280;74870;42.636;23.302;2024-02-14T13:01:44;93258.06;;;6.03;nan
49545;BME280;74870;42.636;23.302;2024-02-14T13:04:10;93163.13;;;5.58;nan
49545;BME280;74870;42.636;23.302;2024-02-14T13:06:36;93163.38;;;5.62;nan
49545;BME280;74870;42.636;23.302;2024-02-14T13:09:03;93250.53;;;6.31;nan
49545;BME280;74870;42.636;23.302;2024-02-14T13:11:31;93240.59;;;6.28;nan
49545;BME280;74870;42.636;23.302;2024-02-14T13:13:57;93224.19;;;6.08;nan
49545;BME280;74870;42.636;23.302;2024-02-14T13:16:23;93212.97;;;5.97;nan
49545;BME280;74870;42.636;23.302;2024-02-14T13:18:49;93229.13;;;6.09;nan
49545;BME280;74870;42.636;23.302;2024-02-14T13:21:14;93205.91;;;5.92;nan